sensor_id;sensor_type;location;lat;lon;timestamp;temperature;humidity
23010;DHT22;11671;49.990;8.028;2023-04-25T00:00:40;10.00;99.90
23010;DHT22;11671;49.990;8.028;2023-04-25T00:03:06;10.00;99.90
23010;DHT22;11671;49.990;8.028;2023-04-25T00:05:34;10.10;99.90
23010;DHT22;11671;49.990;8.028;2023-04-25T00:08:02;10.00;99.90
23010;DHT22;11671;49.990;8.028;2023-04-25T00:10:28;10.10;99.90
23010;DHT22;11671;49.990;8.028;2023-04-25T00:12:54;10.10;99.90
23010;DHT22;11671;49.990;8.028;2023-04-25T00:15:19;10.20;99.90
23010;DHT22;11671;49.990;8.028;2023-04-25T00:17:45;10.20;99.90
23010;DHT22;11671;49.990;8.028;2023-04-25T00:20:11;10.20;99.90
23010;DHT22;11671;49.990;8.028;2023-04-25T00:22:37;10.20;99.90
23010;DHT22;11671;49.990;8.028;2023-04-25T00:25:05;10.20;99.90
23010;DHT22;11671;49.990;8.028;2023-04-25T00:27:31;10.30;99.90
23010;DHT22;11671;49.990;8.028;2023-04-25T00:29:57;10.30;99.90
23010;DHT22;11671;49.990;8.028;2023-04-25T00:32:22;10.40;99.90
23010;DHT22;11671;49.990;8.028;2023-04-25T00:34:48;10.40;99.90
23010;DHT22;11671;49.990;8.028;2023-04-25T00:37:14;10.40;99.90
23010;DHT22;11671;49.990;8.028;2023-04-25T00:39:39;10.40;99.90
23010;DHT22;11671;49.990;8.028;2023-04-25T00:42:05;10.40;99.90
23010;DHT22;11671;49.990;8.028;2023-04-25T00:44:31;10.30;99.90
23010;DHT22;11671;49.990;8.028;2023-04-25T00:46:57;10.40;99.90
23010;DHT22;11671;49.990;8.028;2023-04-25T00:49:23;10.30;99.90
23010;DHT22;11671;49.990;8.028;2023-04-25T00:51:49;10.30;99.90
23010;DHT22;11671;49.990;8.028;2023-04-25T00:54:14;10.40;99.90
23010;DHT22;11671;49.990;8.028;2023-04-25T00:56:40;10.40;99.90
23010;DHT22;11671;49.990;8.028;2023-04-25T00:59:06;10.30;99.90
23010;DHT22;11671;49.990;8.028;2023-04-25T01:01:32;10.30;99.90
23010;DHT22;11671;49.990;8.028;2023-04-25T01:03:58;10.30;99.90
23010;DHT22;11671;49.990;8.028;2023-04-25T01:06:24;10.30;99.90
23010;DHT22;11671;49.990;8.028;2023-04-25T01:08:51;10.20;99.90
23010;DHT22;11671;49.990;8.028;2023-04-25T01:11:17;10.30;99.90
23010;DHT22;11671;49.990;8.028;2023-04-25T01:13:43;10.30;99.90
23010;DHT22;11671;49.990;8.028;2023-04-25T01:16:08;10.30;99.90
23010;DHT22;11671;49.990;8.028;2023-04-25T01:18:34;10.40;99.90
23010;DHT22;11671;49.990;8.028;2023-04-25T01:21:18;10.40;99.90
23010;DHT22;11671;49.990;8.028;2023-04-25T01:23:43;10.40;99.90
23010;DHT22;11671;49.990;8.028;2023-04-25T01:26:09;10.40;99.90
23010;DHT22;11671;49.990;8.028;2023-04-25T01:28:36;10.40;99.90
23010;DHT22;11671;49.990;8.028;2023-04-25T01:31:01;10.40;99.90
23010;DHT22;11671;49.990;8.028;2023-04-25T01:33:27;10.40;99.90
23010;DHT22;11671;49.990;8.028;2023-04-25T01:35:53;10.40;99.90
23010;DHT22;11671;49.990;8.028;2023-04-25T01:38:18;10.30;99.90
23010;DHT22;11671;49.990;8.028;2023-04-25T01:40:45;10.40;99.90
23010;DHT22;11671;49.990;8.028;2023-04-25T01:43:12;10.30;99.90
23010;DHT22;11671;49.990;8.028;2023-04-25T01:45:40;10.40;99.90
23010;DHT22;11671;49.990;8.028;2023-04-25T01:48:07;10.40;99.90
23010;DHT22;11671;49.990;8.028;2023-04-25T01:50:33;10.40;99.90
23010;DHT22;11671;49.990;8.028;2023-04-25T01:52:58;10.30;99.90
23010;DHT22;11671;49.990;8.028;2023-04-25T01:55:24;10.30;99.90
23010;DHT22;11671;49.990;8.028;2023-04-25T01:57:50;10.30;99.90
23010;DHT22;11671;49.990;8.028;2023-04-25T02:00:16;10.30;99.90
23010;DHT22;11671;49.990;8.028;2023-04-25T02:02:41;10.30;99.90
23010;DHT22;11671;49.990;8.028;2023-04-25T02:05:07;10.30;99.90
23010;DHT22;11671;49.990;8.028;2023-04-25T02:07:32;10.20;99.90
23010;DHT22;11671;49.990;8.028;2023-04-25T02:09:58;10.20;99.90
23010;DHT22;11671;49.990;8.028;2023-04-25T02:12:24;10.10;99.90
23010;DHT22;11671;49.990;8.028;2023-04-25T02:14:51;10.10;99.90
23010;DHT22;11671;49.990;8.028;2023-04-25T02:17:17;10.00;99.90
23010;DHT22;11671;49.990;8.028;2023-04-25T02:19:43;10.00;99.90
23010;DHT22;11671;49.990;8.028;2023-04-25T02:22:09;9.90;99.90
23010;DHT22;11671;49.990;8.028;2023-04-25T02:24:35;9.90;99.90
23010;DHT22;11671;49.990;8.028;2023-04-25T02:27:01;9.90;99.90
23010;DHT22;11671;49.990;8.028;2023-04-25T02:29:27;9.80;99.90
23010;DHT22;11671;49.990;8.028;2023-04-25T02:31:52;9.90;99.90
23010;DHT22;11671;49.990;8.028;2023-04-25T02:34:18;9.90;99.90
23010;DHT22;11671;49.990;8.028;2023-04-25T02:36:43;9.80;99.90
23010;DHT22;11671;49.990;8.028;2023-04-25T02:39:09;9.80;99.90
23010;DHT22;11671;49.990;8.028;2023-04-25T02:41:35;9.80;99.90
23010;DHT22;11671;49.990;8.028;2023-04-25T02:44:01;9.80;99.90
23010;DHT22;11671;49.990;8.028;2023-04-25T02:46:26;9.80;99.90
23010;DHT22;11671;49.990;8.028;2023-04-25T02:48:52;9.90;99.90
23010;DHT22;11671;49.990;8.028;2023-04-25T02:51:17;9.90;99.90
23010;DHT22;11671;49.990;8.028;2023-04-25T02:53:43;10.00;99.90
23010;DHT22;11671;49.990;8.028;2023-04-25T02:56:09;10.00;99.90
23010;DHT22;11671;49.990;8.028;2023-04-25T02:58:35;10.10;99.90
23010;DHT22;11671;49.990;8.028;2023-04-25T03:01:00;10.10;99.90
23010;DHT22;11671;49.990;8.028;2023-04-25T03:03:26;10.10;99.90
23010;DHT22;11671;49.990;8.028;2023-04-25T03:05:52;10.20;99.90
23010;DHT22;11671;49.990;8.028;2023-04-25T03:08:18;10.10;99.90
23010;DHT22;11671;49.990;8.028;2023-04-25T03:10:43;10.20;99.90
23010;DHT22;11671;49.990;8.028;2023-04-25T03:13:09;10.20;99.90
23010;DHT22;11671;49.990;8.028;2023-04-25T03:15:35;10.20;99.90
23010;DHT22;11671;49.990;8.028;2023-04-25T03:18:01;10.20;99.90
23010;DHT22;11671;49.990;8.028;2023-04-25T03:20:27;10.10;99.90
23010;DHT22;11671;49.990;8.028;2023-04-25T03:22:52;10.10;99.90
23010;DHT22;11671;49.990;8.028;2023-04-25T03:25:18;10.10;99.90
23010;DHT22;11671;49.990;8.028;2023-04-25T03:27:44;10.00;99.90
23010;DHT22;11671;49.990;8.028;2023-04-25T03:30:09;10.00;99.90
23010;DHT22;11671;49.990;8.028;2023-04-25T03:32:35;9.90;99.90
23010;DHT22;11671;49.990;8.028;2023-04-25T03:35:01;9.90;99.90
23010;DHT22;11671;49.990;8.028;2023-04-25T03:37:26;9.90;99.90
23010;DHT22;11671;49.990;8.028;2023-04-25T03:39:52;9.90;99.90
23010;DHT22;11671;49.990;8.028;2023-04-25T03:42:17;9.90;99.90
23010;DHT22;11671;49.990;8.028;2023-04-25T03:44:43;9.90;99.90
23010;DHT22;11671;49.990;8.028;2023-04-25T03:47:08;9.90;99.90
23010;DHT22;11671;49.990;8.028;2023-04-25T03:49:34;9.80;99.90
23010;DHT22;11671;49.990;8.028;2023-04-25T03:52:00;9.90;99.90
23010;DHT22;11671;49.990;8.028;2023-04-25T03:54:25;9.90;99.90
23010;DHT22;11671;49.990;8.028;2023-04-25T03:56:51;9.90;99.90
23010;DHT22;11671;49.990;8.028;2023-04-25T03:59:17;9.90;99.90
23010;DHT22;11671;49.990;8.028;2023-04-25T04:01:42;9.90;99.90
23010;DHT22;11671;49.990;8.028;2023-04-25T04:04:08;9.80;99.90
23010;DHT22;11671;49.990;8.028;2023-04-25T04:06:33;9.90;99.90
23010;DHT22;11671;49.990;8.028;2023-04-25T04:08:59;9.80;99.90
23010;DHT22;11671;49.990;8.028;2023-04-25T04:11:25;9.80;99.90
23010;DHT22;11671;49.990;8.028;2023-04-25T04:13:50;9.80;99.90
23010;DHT22;11671;49.990;8.028;2023-04-25T04:16:16;9.70;99.90
23010;DHT22;11671;49.990;8.028;2023-04-25T04:18:41;9.60;99.90
23010;DHT22;11671;49.990;8.028;2023-04-25T04:21:07;9.60;99.90
23010;DHT22;11671;49.990;8.028;2023-04-25T04:23:32;9.50;99.90
23010;DHT22;11671;49.990;8.028;2023-04-25T04:25:58;9.40;99.90
23010;DHT22;11671;49.990;8.028;2023-04-25T04:28:25;9.50;99.90
23010;DHT22;11671;49.990;8.028;2023-04-25T04:30:52;9.50;99.90
23010;DHT22;11671;49.990;8.028;2023-04-25T04:33:17;9.60;99.90
23010;DHT22;11671;49.990;8.028;2023-04-25T04:35:46;9.60;99.90
23010;DHT22;11671;49.990;8.028;2023-04-25T04:38:12;9.50;99.90
23010;DHT22;11671;49.990;8.028;2023-04-25T04:40:40;9.40;99.90
23010;DHT22;11671;49.990;8.028;2023-04-25T04:43:07;9.30;99.90
23010;DHT22;11671;49.990;8.028;2023-04-25T04:45:34;9.30;99.90
23010;DHT22;11671;49.990;8.028;2023-04-25T04:47:59;9.20;99.90
23010;DHT22;11671;49.990;8.028;2023-04-25T04:50:25;9.20;99.90
23010;DHT22;11671;49.990;8.028;2023-04-25T04:52:51;9.20;99.90
23010;DHT22;11671;49.990;8.028;2023-04-25T04:55:17;9.30;99.90
23010;DHT22;11671;49.990;8.028;2023-04-25T04:57:42;9.30;99.90
23010;DHT22;11671;49.990;8.028;2023-04-25T05:00:08;9.40;99.90
23010;DHT22;11671;49.990;8.028;2023-04-25T05:02:37;9.50;99.90
23010;DHT22;11671;49.990;8.028;2023-04-25T05:05:04;9.50;99.90
23010;DHT22;11671;49.990;8.028;2023-04-25T05:07:30;9.50;99.90
23010;DHT22;11671;49.990;8.028;2023-04-25T05:09:56;9.70;99.90
23010;DHT22;11671;49.990;8.028;2023-04-25T05:12:21;9.90;99.90
23010;DHT22;11671;49.990;8.028;2023-04-25T05:14:47;10.10;99.90
23010;DHT22;11671;49.990;8.028;2023-04-25T05:17:12;10.10;99.90
23010;DHT22;11671;49.990;8.028;2023-04-25T05:19:38;10.20;99.90
23010;DHT22;11671;49.990;8.028;2023-04-25T05:22:04;10.50;99.90
23010;DHT22;11671;49.990;8.028;2023-04-25T05:24:30;10.50;99.90
23010;DHT22;11671;49.990;8.028;2023-04-25T05:26:56;10.40;99.90
23010;DHT22;11671;49.990;8.028;2023-04-25T05:29:22;10.30;99.90
23010;DHT22;11671;49.990;8.028;2023-04-25T05:31:47;10.40;99.90
23010;DHT22;11671;49.990;8.028;2023-04-25T05:34:13;10.30;99.90
23010;DHT22;11671;49.990;8.028;2023-04-25T05:36:41;10.40;99.90
23010;DHT22;11671;49.990;8.028;2023-04-25T05:39:06;10.40;99.90
23010;DHT22;11671;49.990;8.028;2023-04-25T05:41:33;10.40;99.90
23010;DHT22;11671;49.990;8.028;2023-04-25T05:43:58;10.50;99.90
23010;DHT22;11671;49.990;8.028;2023-04-25T05:46:24;10.60;99.90
23010;DHT22;11671;49.990;8.028;2023-04-25T05:48:49;10.70;99.90
23010;DHT22;11671;49.990;8.028;2023-04-25T05:51:15;11.00;99.90
23010;DHT22;11671;49.990;8.028;2023-04-25T05:53:41;11.40;99.90
23010;DHT22;11671;49.990;8.028;2023-04-25T05:56:07;11.60;99.90
23010;DHT22;11671;49.990;8.028;2023-04-25T05:58:33;11.50;99.90
23010;DHT22;11671;49.990;8.028;2023-04-25T06:00:58;11.60;99.90
23010;DHT22;11671;49.990;8.028;2023-04-25T06:03:24;11.50;99.90
23010;DHT22;11671;49.990;8.028;2023-04-25T06:05:50;11.40;99.90
23010;DHT22;11671;49.990;8.028;2023-04-25T06:08:15;11.20;99.90
23010;DHT22;11671;49.990;8.028;2023-04-25T06:10:41;11.00;99.90
23010;DHT22;11671;49.990;8.028;2023-04-25T06:13:06;11.10;99.90
23010;DHT22;11671;49.990;8.028;2023-04-25T06:15:32;10.90;99.90
23010;DHT22;11671;49.990;8.028;2023-04-25T06:17:58;11.10;99.90
23010;DHT22;11671;49.990;8.028;2023-04-25T06:20:23;11.40;99.90
23010;DHT22;11671;49.990;8.028;2023-04-25T06:22:50;11.60;99.90
23010;DHT22;11671;49.990;8.028;2023-04-25T06:25:17;11.60;99.90
23010;DHT22;11671;49.990;8.028;2023-04-25T06:27:42;11.60;99.90
23010;DHT22;11671;49.990;8.028;2023-04-25T06:30:08;11.50;99.90
23010;DHT22;11671;49.990;8.028;2023-04-25T06:32:34;11.40;99.90
23010;DHT22;11671;49.990;8.028;2023-04-25T06:35:00;11.50;99.90
23010;DHT22;11671;49.990;8.028;2023-04-25T06:37:26;11.50;99.90
23010;DHT22;11671;49.990;8.028;2023-04-25T06:39:51;11.40;99.90
23010;DHT22;11671;49.990;8.028;2023-04-25T06:42:17;11.30;99.90
23010;DHT22;11671;49.990;8.028;2023-04-25T06:44:43;11.30;99.90
23010;DHT22;11671;49.990;8.028;2023-04-25T06:47:08;11.30;99.90
23010;DHT22;11671;49.990;8.028;2023-04-25T06:49:34;11.60;99.90
23010;DHT22;11671;49.990;8.028;2023-04-25T06:52:00;11.60;99.90
23010;DHT22;11671;49.990;8.028;2023-04-25T06:54:25;11.80;99.90
23010;DHT22;11671;49.990;8.028;2023-04-25T06:56:53;12.00;99.90
23010;DHT22;11671;49.990;8.028;2023-04-25T06:59:18;12.10;99.90
23010;DHT22;11671;49.990;8.028;2023-04-25T07:01:44;12.00;99.90
23010;DHT22;11671;49.990;8.028;2023-04-25T07:04:10;12.20;99.90
23010;DHT22;11671;49.990;8.028;2023-04-25T07:06:35;12.40;99.90
23010;DHT22;11671;49.990;8.028;2023-04-25T07:09:03;12.50;99.90
23010;DHT22;11671;49.990;8.028;2023-04-25T07:11:30;12.80;99.90
23010;DHT22;11671;49.990;8.028;2023-04-25T07:13:55;13.30;99.90
23010;DHT22;11671;49.990;8.028;2023-04-25T07:16:21;13.60;99.90
23010;DHT22;11671;49.990;8.028;2023-04-25T07:18:46;13.70;99.90
23010;DHT22;11671;49.990;8.028;2023-04-25T07:21:12;13.40;99.90
23010;DHT22;11671;49.990;8.028;2023-04-25T07:23:38;13.30;99.90
23010;DHT22;11671;49.990;8.028;2023-04-25T07:26:06;13.10;99.90
23010;DHT22;11671;49.990;8.028;2023-04-25T07:28:31;12.90;99.90
23010;DHT22;11671;49.990;8.028;2023-04-25T07:30:57;12.90;99.90
23010;DHT22;11671;49.990;8.028;2023-04-25T07:33:23;12.70;99.90
23010;DHT22;11671;49.990;8.028;2023-04-25T07:35:48;12.70;99.90
23010;DHT22;11671;49.990;8.028;2023-04-25T07:38:14;12.70;99.90
23010;DHT22;11671;49.990;8.028;2023-04-25T07:40:40;12.70;99.90
23010;DHT22;11671;49.990;8.028;2023-04-25T07:43:05;12.80;99.90
23010;DHT22;11671;49.990;8.028;2023-04-25T07:45:31;12.90;99.90
23010;DHT22;11671;49.990;8.028;2023-04-25T07:47:56;13.00;99.90
23010;DHT22;11671;49.990;8.028;2023-04-25T07:50:22;13.00;99.90
23010;DHT22;11671;49.990;8.028;2023-04-25T07:52:48;12.90;99.90
23010;DHT22;11671;49.990;8.028;2023-04-25T07:55:13;13.00;99.90
23010;DHT22;11671;49.990;8.028;2023-04-25T07:57:39;13.20;99.90
23010;DHT22;11671;49.990;8.028;2023-04-25T08:00:05;13.20;99.90
23010;DHT22;11671;49.990;8.028;2023-04-25T08:02:34;13.50;99.90
23010;DHT22;11671;49.990;8.028;2023-04-25T08:05:00;13.70;99.90
23010;DHT22;11671;49.990;8.028;2023-04-25T08:07:26;13.80;99.90
23010;DHT22;11671;49.990;8.028;2023-04-25T08:09:51;13.60;99.90
23010;DHT22;11671;49.990;8.028;2023-04-25T08:12:17;13.60;99.90
23010;DHT22;11671;49.990;8.028;2023-04-25T08:14:43;13.30;99.90
23010;DHT22;11671;49.990;8.028;2023-04-25T08:17:09;13.30;99.90
23010;DHT22;11671;49.990;8.028;2023-04-25T08:19:35;13.40;99.90
23010;DHT22;11671;49.990;8.028;2023-04-25T08:22:00;13.10;99.90
23010;DHT22;11671;49.990;8.028;2023-04-25T08:24:26;12.80;99.90
23010;DHT22;11671;49.990;8.028;2023-04-25T08:26:51;13.10;99.90
23010;DHT22;11671;49.990;8.028;2023-04-25T08:29:17;13.50;99.90
23010;DHT22;11671;49.990;8.028;2023-04-25T08:31:43;13.90;99.90
23010;DHT22;11671;49.990;8.028;2023-04-25T08:34:08;14.30;99.90
23010;DHT22;11671;49.990;8.028;2023-04-25T08:36:35;14.40;99.90
23010;DHT22;11671;49.990;8.028;2023-04-25T08:39:00;14.40;99.90
23010;DHT22;11671;49.990;8.028;2023-04-25T08:41:26;14.30;99.90
23010;DHT22;11671;49.990;8.028;2023-04-25T08:43:53;14.30;99.90
23010;DHT22;11671;49.990;8.028;2023-04-25T08:46:20;14.20;99.90
23010;DHT22;11671;49.990;8.028;2023-04-25T08:48:45;14.20;99.90
23010;DHT22;11671;49.990;8.028;2023-04-25T08:51:21;13.90;99.90
23010;DHT22;11671;49.990;8.028;2023-04-25T08:53:48;13.90;99.90
23010;DHT22;11671;49.990;8.028;2023-04-25T08:56:16;13.90;99.90
23010;DHT22;11671;49.990;8.028;2023-04-25T08:58:44;14.30;99.90
23010;DHT22;11671;49.990;8.028;2023-04-25T09:01:11;14.20;99.90
23010;DHT22;11671;49.990;8.028;2023-04-25T09:03:36;14.40;99.90
23010;DHT22;11671;49.990;8.028;2023-04-25T09:06:02;14.50;99.90
23010;DHT22;11671;49.990;8.028;2023-04-25T09:08:28;14.50;99.90
23010;DHT22;11671;49.990;8.028;2023-04-25T09:10:54;14.40;99.90
23010;DHT22;11671;49.990;8.028;2023-04-25T09:13:28;14.30;99.90
23010;DHT22;11671;49.990;8.028;2023-04-25T09:15:55;14.30;99.90
23010;DHT22;11671;49.990;8.028;2023-04-25T09:18:32;14.00;99.90
23010;DHT22;11671;49.990;8.028;2023-04-25T09:21:05;13.90;99.90
23010;DHT22;11671;49.990;8.028;2023-04-25T09:23:43;13.80;99.90
23010;DHT22;11671;49.990;8.028;2023-04-25T09:26:09;13.50;99.90
23010;DHT22;11671;49.990;8.028;2023-04-25T09:28:35;13.80;99.90
23010;DHT22;11671;49.990;8.028;2023-04-25T09:31:01;14.20;99.90
23010;DHT22;11671;49.990;8.028;2023-04-25T09:33:30;14.20;99.90
23010;DHT22;11671;49.990;8.028;2023-04-25T09:38:30;14.00;99.90
23010;DHT22;11671;49.990;8.028;2023-04-25T09:40:56;14.10;99.90
23010;DHT22;11671;49.990;8.028;2023-04-25T09:43:22;14.20;99.90
23010;DHT22;11671;49.990;8.028;2023-04-25T09:45:49;14.10;99.90
23010;DHT22;11671;49.990;8.028;2023-04-25T09:48:18;13.70;99.90
23010;DHT22;11671;49.990;8.028;2023-04-25T09:50:44;13.10;99.90
23010;DHT22;11671;49.990;8.028;2023-04-25T09:53:10;12.90;99.90
23010;DHT22;11671;49.990;8.028;2023-04-25T09:55:36;12.70;99.90
23010;DHT22;11671;49.990;8.028;2023-04-25T09:58:06;12.70;99.90
23010;DHT22;11671;49.990;8.028;2023-04-25T10:00:34;12.90;99.90
23010;DHT22;11671;49.990;8.028;2023-04-25T10:03:05;13.00;99.90
23010;DHT22;11671;49.990;8.028;2023-04-25T10:05:34;13.10;99.90
23010;DHT22;11671;49.990;8.028;2023-04-25T10:08:03;13.30;99.90
23010;DHT22;11671;49.990;8.028;2023-04-25T10:10:32;13.50;99.90
23010;DHT22;11671;49.990;8.028;2023-04-25T10:13:03;13.60;99.90
23010;DHT22;11671;49.990;8.028;2023-04-25T10:15:29;13.70;99.90
23010;DHT22;11671;49.990;8.028;2023-04-25T10:17:56;13.80;99.90
23010;DHT22;11671;49.990;8.028;2023-04-25T10:20:22;13.90;99.90
23010;DHT22;11671;49.990;8.028;2023-04-25T10:22:48;13.70;99.90
23010;DHT22;11671;49.990;8.028;2023-04-25T10:25:19;13.80;99.90
23010;DHT22;11671;49.990;8.028;2023-04-25T10:27:45;13.70;99.90
23010;DHT22;11671;49.990;8.028;2023-04-25T10:30:14;13.80;99.90
23010;DHT22;11671;49.990;8.028;2023-04-25T10:32:44;13.80;99.90
23010;DHT22;11671;49.990;8.028;2023-04-25T10:35:27;13.50;99.90
23010;DHT22;11671;49.990;8.028;2023-04-25T10:38:03;13.40;99.90
23010;DHT22;11671;49.990;8.028;2023-04-25T10:40:30;13.50;99.90
23010;DHT22;11671;49.990;8.028;2023-04-25T10:42:55;13.60;99.90
23010;DHT22;11671;49.990;8.028;2023-04-25T10:45:53;13.50;99.90
23010;DHT22;11671;49.990;8.028;2023-04-25T10:48:29;13.50;99.90
23010;DHT22;11671;49.990;8.028;2023-04-25T10:51:08;13.90;99.90
23010;DHT22;11671;49.990;8.028;2023-04-25T10:53:34;14.30;99.90
23010;DHT22;11671;49.990;8.028;2023-04-25T10:56:00;14.70;99.90
23010;DHT22;11671;49.990;8.028;2023-04-25T10:58:26;15.00;99.90
23010;DHT22;11671;49.990;8.028;2023-04-25T11:00:52;15.30;99.90
23010;DHT22;11671;49.990;8.028;2023-04-25T11:03:18;15.40;99.90
23010;DHT22;11671;49.990;8.028;2023-04-25T11:05:47;15.80;99.90
23010;DHT22;11671;49.990;8.028;2023-04-25T11:08:21;15.60;99.90
23010;DHT22;11671;49.990;8.028;2023-04-25T11:10:51;15.60;99.90
23010;DHT22;11671;49.990;8.028;2023-04-25T11:13:16;15.10;99.90
23010;DHT22;11671;49.990;8.028;2023-04-25T11:15:45;14.50;99.90
23010;DHT22;11671;49.990;8.028;2023-04-25T11:18:15;14.10;99.90
23010;DHT22;11671;49.990;8.028;2023-04-25T11:20:43;14.10;99.90
23010;DHT22;11671;49.990;8.028;2023-04-25T11:23:08;13.90;99.90
23010;DHT22;11671;49.990;8.028;2023-04-25T11:25:34;13.90;99.90
23010;DHT22;11671;49.990;8.028;2023-04-25T11:28:00;13.80;99.90
23010;DHT22;11671;49.990;8.028;2023-04-25T11:30:27;13.80;99.90
23010;DHT22;11671;49.990;8.028;2023-04-25T11:32:54;13.60;99.90
23010;DHT22;11671;49.990;8.028;2023-04-25T11:35:20;13.70;99.90
23010;DHT22;11671;49.990;8.028;2023-04-25T11:37:48;13.70;99.90
23010;DHT22;11671;49.990;8.028;2023-04-25T11:40:14;13.70;99.90
23010;DHT22;11671;49.990;8.028;2023-04-25T11:42:43;14.00;99.90
23010;DHT22;11671;49.990;8.028;2023-04-25T11:45:10;14.10;99.90
23010;DHT22;11671;49.990;8.028;2023-04-25T11:47:36;14.30;99.90
23010;DHT22;11671;49.990;8.028;2023-04-25T11:50:02;14.50;99.90
23010;DHT22;11671;49.990;8.028;2023-04-25T11:52:46;14.50;99.90
23010;DHT22;11671;49.990;8.028;2023-04-25T11:55:19;14.60;99.90
23010;DHT22;11671;49.990;8.028;2023-04-25T11:57:47;14.50;99.90
23010;DHT22;11671;49.990;8.028;2023-04-25T12:00:17;14.50;99.90
23010;DHT22;11671;49.990;8.028;2023-04-25T12:02:45;14.20;99.90
23010;DHT22;11671;49.990;8.028;2023-04-25T12:05:11;14.00;99.90
23010;DHT22;11671;49.990;8.028;2023-04-25T12:07:37;13.90;99.90
23010;DHT22;11671;49.990;8.028;2023-04-25T12:10:06;14.00;99.90
23010;DHT22;11671;49.990;8.028;2023-04-25T12:12:34;14.30;99.90
23010;DHT22;11671;49.990;8.028;2023-04-25T12:17:40;14.00;99.90
23010;DHT22;11671;49.990;8.028;2023-04-25T12:20:07;14.20;99.90
23010;DHT22;11671;49.990;8.028;2023-04-25T12:22:32;14.10;99.90
23010;DHT22;11671;49.990;8.028;2023-04-25T12:24:59;14.30;99.90
23010;DHT22;11671;49.990;8.028;2023-04-25T12:27:25;14.70;99.90
23010;DHT22;11671;49.990;8.028;2023-04-25T12:29:55;15.10;99.90
23010;DHT22;11671;49.990;8.028;2023-04-25T12:32:21;15.20;99.90
23010;DHT22;11671;49.990;8.028;2023-04-25T12:34:46;15.20;99.90
23010;DHT22;11671;49.990;8.028;2023-04-25T12:37:12;15.00;99.90
23010;DHT22;11671;49.990;8.028;2023-04-25T12:39:38;15.00;99.90
23010;DHT22;11671;49.990;8.028;2023-04-25T12:42:04;14.90;99.90
23010;DHT22;11671;49.990;8.028;2023-04-25T12:44:29;15.10;99.90
23010;DHT22;11671;49.990;8.028;2023-04-25T12:46:55;15.60;99.90
23010;DHT22;11671;49.990;8.028;2023-04-25T12:49:20;15.70;99.90
23010;DHT22;11671;49.990;8.028;2023-04-25T12:51:46;15.90;99.90
23010;DHT22;11671;49.990;8.028;2023-04-25T12:54:12;15.80;99.90
23010;DHT22;11671;49.990;8.028;2023-04-25T12:56:37;15.40;99.90
23010;DHT22;11671;49.990;8.028;2023-04-25T12:59:03;15.50;99.90
23010;DHT22;11671;49.990;8.028;2023-04-25T13:01:29;15.80;99.90
23010;DHT22;11671;49.990;8.028;2023-04-25T13:03:55;16.10;99.90
23010;DHT22;11671;49.990;8.028;2023-04-25T13:06:21;16.10;99.90
23010;DHT22;11671;49.990;8.028;2023-04-25T13:08:46;16.00;99.90
23010;DHT22;11671;49.990;8.028;2023-04-25T13:11:12;15.90;99.90
23010;DHT22;11671;49.990;8.028;2023-04-25T13:13:38;15.90;99.90
23010;DHT22;11671;49.990;8.028;2023-04-25T13:16:05;15.60;99.90
23010;DHT22;11671;49.990;8.028;2023-04-25T13:18:31;15.70;99.90
23010;DHT22;11671;49.990;8.028;2023-04-25T13:20:57;15.50;99.90
23010;DHT22;11671;49.990;8.028;2023-04-25T13:23:24;15.10;99.90
23010;DHT22;11671;49.990;8.028;2023-04-25T13:25:50;14.90;99.90
23010;DHT22;11671;49.990;8.028;2023-04-25T13:28:16;14.80;99.90
23010;DHT22;11671;49.990;8.028;2023-04-25T13:30:42;14.80;99.90
23010;DHT22;11671;49.990;8.028;2023-04-25T13:33:08;15.00;99.90
23010;DHT22;11671;49.990;8.028;2023-04-25T13:35:34;15.00;99.90
23010;DHT22;11671;49.990;8.028;2023-04-25T13:38:00;15.20;99.90
23010;DHT22;11671;49.990;8.028;2023-04-25T13:40:26;15.20;99.90
23010;DHT22;11671;49.990;8.028;2023-04-25T13:42:52;14.90;99.90
23010;DHT22;11671;49.990;8.028;2023-04-25T13:45:18;14.80;99.90
23010;DHT22;11671;49.990;8.028;2023-04-25T13:47:44;14.50;99.90
23010;DHT22;11671;49.990;8.028;2023-04-25T13:50:09;14.20;99.90
23010;DHT22;11671;49.990;8.028;2023-04-25T13:52:35;13.90;99.90
23010;DHT22;11671;49.990;8.028;2023-04-25T13:55:01;13.90;99.90
23010;DHT22;11671;49.990;8.028;2023-04-25T13:57:30;14.00;99.90
23010;DHT22;11671;49.990;8.028;2023-04-25T13:59:56;14.10;99.90
23010;DHT22;11671;49.990;8.028;2023-04-25T14:02:21;14.30;99.90
23010;DHT22;11671;49.990;8.028;2023-04-25T14:04:47;14.30;99.90
23010;DHT22;11671;49.990;8.028;2023-04-25T14:07:13;14.30;99.90
23010;DHT22;11671;49.990;8.028;2023-04-25T14:09:41;14.30;99.90
23010;DHT22;11671;49.990;8.028;2023-04-25T14:12:07;14.20;99.90
23010;DHT22;11671;49.990;8.028;2023-04-25T14:14:32;14.20;99.90
23010;DHT22;11671;49.990;8.028;2023-04-25T14:16:58;14.30;99.90
23010;DHT22;11671;49.990;8.028;2023-04-25T14:19:24;14.30;99.90
23010;DHT22;11671;49.990;8.028;2023-04-25T14:21:49;14.30;99.90
23010;DHT22;11671;49.990;8.028;2023-04-25T14:24:15;14.30;99.90
23010;DHT22;11671;49.990;8.028;2023-04-25T14:26:41;14.30;99.90
23010;DHT22;11671;49.990;8.028;2023-04-25T14:29:08;14.20;99.90
23010;DHT22;11671;49.990;8.028;2023-04-25T14:31:34;14.20;99.90
23010;DHT22;11671;49.990;8.028;2023-04-25T14:34:01;14.30;99.90
23010;DHT22;11671;49.990;8.028;2023-04-25T14:36:28;14.10;99.90
23010;DHT22;11671;49.990;8.028;2023-04-25T14:38:53;14.20;99.90
23010;DHT22;11671;49.990;8.028;2023-04-25T14:41:19;14.20;99.90
23010;DHT22;11671;49.990;8.028;2023-04-25T14:43:44;14.10;99.90
23010;DHT22;11671;49.990;8.028;2023-04-25T14:46:10;13.90;99.90
23010;DHT22;11671;49.990;8.028;2023-04-25T14:48:36;13.90;99.90
23010;DHT22;11671;49.990;8.028;2023-04-25T14:51:02;13.90;99.90
23010;DHT22;11671;49.990;8.028;2023-04-25T14:53:27;13.90;99.90
23010;DHT22;11671;49.990;8.028;2023-04-25T14:55:53;13.90;99.90
23010;DHT22;11671;49.990;8.028;2023-04-25T14:58:19;13.90;99.90
23010;DHT22;11671;49.990;8.028;2023-04-25T15:00:45;13.90;99.90
23010;DHT22;11671;49.990;8.028;2023-04-25T15:03:11;13.90;99.90
23010;DHT22;11671;49.990;8.028;2023-04-25T15:05:39;14.00;99.90
23010;DHT22;11671;49.990;8.028;2023-04-25T15:08:05;14.00;99.90
23010;DHT22;11671;49.990;8.028;2023-04-25T15:10:30;14.00;99.90
23010;DHT22;11671;49.990;8.028;2023-04-25T15:12:56;13.70;99.90
23010;DHT22;11671;49.990;8.028;2023-04-25T15:15:22;13.90;99.90
23010;DHT22;11671;49.990;8.028;2023-04-25T15:17:49;14.00;99.90
23010;DHT22;11671;49.990;8.028;2023-04-25T15:20:15;14.10;99.90
23010;DHT22;11671;49.990;8.028;2023-04-25T15:22:41;14.20;99.90
23010;DHT22;11671;49.990;8.028;2023-04-25T15:25:10;14.20;99.90
23010;DHT22;11671;49.990;8.028;2023-04-25T15:27:38;14.20;99.90
23010;DHT22;11671;49.990;8.028;2023-04-25T15:30:07;14.20;99.90
23010;DHT22;11671;49.990;8.028;2023-04-25T15:32:34;14.00;99.90